Time;durP1;ratioP1;P1;durP2;ratioP2;P2;SDS_P1;SDS_P2;PMS_P1;PMS_P2;Temp;Humidity;BMP_temperature;BMP_pressure;BME280_temperature;BME280_humidity;BME280_pressure;Samples;Min_cycle;Max_cycle;Signal;HPM_P1;HPM_P2
2022/08/15 00:01:49;;;;;;;7.28;6.47;;;21.50;99.90;;;;;;4943080;28;20277;-75
2022/08/15 00:04:15;;;;;;;7.13;6.43;;;21.50;99.90;;;;;;4943473;28;20187;-75
2022/08/15 00:06:45;;;;;;;7.00;6.30;;;21.40;99.90;;;;;;4975007;28;20191;-74
2022/08/15 00:09:22;;;;;;;7.03;6.40;;;21.30;99.90;;;;;;4975202;28;20251;-75
2022/08/15 00:11:51;;;;;;;6.75;6.15;;;21.30;99.90;;;;;;4959577;28;20200;-76
2022/08/15 00:14:21;;;;;;;7.53;6.82;;;21.30;99.90;;;;;;4975116;28;20824;-75
2022/08/15 00:16:48;;;;;;;6.95;6.38;;;21.30;99.90;;;;;;4974988;28;20299;-76
2022/08/15 00:19:19;;;;;;;6.18;5.68;;;21.30;99.90;;;;;;4989997;28;20180;-75
2022/08/15 00:21:48;;;;;;;7.22;6.45;;;21.20;99.90;;;;;;4991181;28;20180;-76
2022/08/15 00:24:17;;;;;;;8.73;7.20;;;21.10;99.90;;;;;;4974837;28;20179;-75
2022/08/15 00:26:44;;;;;;;7.30;6.47;;;21.10;99.90;;;;;;4984844;23;20278;-76
2022/08/15 00:29:10;;;;;;;6.95;6.25;;;21.10;99.90;;;;;;4977587;28;20283;-76
2022/08/15 00:31:36;;;;;;;7.63;6.57;;;21.20;99.90;;;;;;4962053;28;20184;-76
2022/08/15 00:34:03;;;;;;;7.40;6.75;;;21.20;99.90;;;;;;4946008;28;20183;-76
2022/08/15 00:36:30;;;;;;;7.25;6.65;;;21.20;99.90;;;;;;4961513;28;20183;-76
2022/08/15 00:38:59;;;;;;;6.82;6.25;;;21.10;99.90;;;;;;4961761;28;20254;-76
2022/08/15 00:41:39;;;;;;;8.07;6.53;;;20.90;99.90;;;;;;4995046;28;20200;-76
2022/08/15 00:44:10;;;;;;;7.13;6.53;;;20.80;99.90;;;;;;4977564;28;20172;-76
2022/08/15 00:46:37;;;;;;;7.50;6.65;;;20.90;99.90;;;;;;4977103;28;20226;-76
2022/08/15 00:49:03;;;;;;;7.07;6.40;;;20.80;99.90;;;;;;4977665;28;20207;-77
2022/08/15 00:52:01;;;;;;;7.22;6.63;;;20.70;99.90;;;;;;4977372;28;20182;-77
2022/08/15 00:54:29;;;;;;;7.13;6.43;;;20.70;99.90;;;;;;4962670;28;20188;-76
2022/08/15 00:57:09;;;;;;;7.35;6.63;;;20.60;99.90;;;;;;4977348;28;20204;-76
2022/08/15 00:59:40;;;;;;;7.57;6.90;;;20.60;99.90;;;;;;4977250;28;20207;-76
2022/08/15 01:02:10;;;;;;;7.10;6.50;;;20.70;99.90;;;;;;4977491;28;20171;-76
2022/08/15 01:04:36;;;;;;;7.57;6.97;;;20.80;99.90;;;;;;4977327;28;20171;-76
2022/08/15 01:07:04;;;;;;;7.32;6.72;;;20.80;99.90;;;;;;4961195;28;20208;-76
2022/08/15 01:09:30;;;;;;;7.55;6.80;;;20.90;99.90;;;;;;4961202;28;20580;-76
2022/08/15 01:12:07;;;;;;;7.15;6.55;;;20.80;99.90;;;;;;4961197;28;20720;-76
2022/08/15 01:14:35;;;;;;;7.57;6.90;;;20.80;99.90;;;;;;4961241;28;20263;-76
2022/08/15 01:17:01;;;;;;;9.10;7.40;;;20.70;99.90;;;;;;4961074;28;20571;-76
2022/08/15 01:19:33;;;;;;;7.95;6.90;;;20.70;99.90;;;;;;4960968;28;20183;-76
2022/08/15 01:22:31;;;;;;;7.43;6.75;;;20.60;99.90;;;;;;4976894;28;20266;-76
2022/08/15 01:25:10;;;;;;;7.35;6.75;;;20.30;99.90;;;;;;4976819;28;20665;-76
2022/08/15 01:27:50;;;;;;;8.05;7.35;;;20.20;99.90;;;;;;4993889;28;20744;-77
2022/08/15 01:30:19;;;;;;;7.95;7.10;;;20.30;99.90;;;;;;4976630;28;20191;-76
2022/08/15 01:32:46;;;;;;;8.57;7.18;;;20.40;99.90;;;;;;4960702;28;20175;-76
2022/08/15 01:35:13;;;;;;;7.30;6.55;;;20.40;99.90;;;;;;4960815;28;20180;-76
2022/08/15 01:37:40;;;;;;;7.82;7.13;;;20.50;99.90;;;;;;4993851;28;20204;-76
2022/08/15 01:40:52;;;;;;;7.20;6.50;;;20.50;99.90;;;;;;4976470;28;20204;-76
2022/08/15 01:43:24;;;;;;;7.13;6.43;;;20.40;99.90;;;;;;4993931;28;20171;-76
2022/08/15 01:45:53;;;;;;;7.05;6.45;;;20.30;99.90;;;;;;4976148;28;20550;-76
2022/08/15 01:48:32;;;;;;;7.50;6.70;;;20.30;99.90;;;;;;4960535;28;20199;-76
2022/08/15 01:51:04;;;;;;;7.25;6.55;;;20.30;99.90;;;;;;4976483;28;20176;-76
2022/08/15 01:53:39;;;;;;;7.53;6.82;;;20.40;99.90;;;;;;4993752;28;20167;-76
2022/08/15 01:56:18;;;;;;;7.63;6.85;;;20.50;99.90;;;;;;4976525;28;20175;-76
2022/08/15 01:58:45;;;;;;;7.65;6.80;;;20.50;99.90;;;;;;4976134;28;20200;-76
2022/08/15 02:01:15;;;;;;;7.18;6.57;;;20.50;99.90;;;;;;4960302;28;20242;-76
2022/08/15 02:03:43;;;;;;;7.97;7.10;;;20.50;99.90;;;;;;4960156;28;20176;-76
2022/08/15 02:06:14;;;;;;;9.15;7.57;;;20.50;99.90;;;;;;4959964;28;20623;-77
2022/08/15 02:08:41;;;;;;;8.10;7.40;;;20.50;99.90;;;;;;4976134;28;20184;-76
2022/08/15 02:11:13;;;;;;;7.50;6.78;;;20.50;99.90;;;;;;4976205;28;20179;-76
2022/08/15 02:13:40;;;;;;;7.78;6.97;;;20.40;99.90;;;;;;4976223;28;20176;-76
2022/08/15 02:16:06;;;;;;;7.38;6.68;;;20.50;99.90;;;;;;4993339;28;20635;-76
2022/08/15 02:18:31;;;;;;;8.00;7.30;;;20.60;99.90;;;;;;4959804;28;20673;-76
2022/08/15 02:20:57;;;;;;;7.85;7.15;;;20.60;99.90;;;;;;4959772;28;20203;-76
2022/08/15 02:23:24;;;;;;;7.72;7.03;;;20.70;99.90;;;;;;4975940;28;20519;-76
2022/08/15 02:25:53;;;;;;;7.75;7.05;;;20.50;99.90;;;;;;4959935;28;20172;-76
2022/08/15 02:28:19;;;;;;;7.80;7.00;;;20.40;99.90;;;;;;4992886;28;20283;-76
2022/08/15 02:30:45;;;;;;;7.47;6.70;;;20.30;99.90;;;;;;4975847;28;20172;-76
2022/08/15 02:33:11;;;;;;;7.63;6.93;;;20.20;99.90;;;;;;4975723;28;20179;-76
2022/08/15 02:35:38;;;;;;;7.35;6.65;;;20.10;99.90;;;;;;4959647;28;20559;-76
2022/08/15 02:38:05;;;;;;;8.02;7.32;;;19.80;99.90;;;;;;4992802;28;20590;-76
2022/08/15 02:40:31;;;;;;;7.65;6.65;;;19.70;99.90;;;;;;4975273;28;20207;-76
2022/08/15 02:43:07;;;;;;;7.25;6.55;;;19.60;99.90;;;;;;4975560;28;20172;-76
2022/08/15 02:45:37;;;;;;;7.65;6.93;;;19.60;99.90;;;;;;4992986;28;20235;-76
2022/08/15 02:48:04;;;;;;;8.40;7.60;;;19.60;99.90;;;;;;4992344;28;20184;-76
2022/08/15 02:50:30;;;;;;;7.80;7.10;;;19.60;99.90;;;;;;4959705;28;20187;-76
2022/08/15 02:52:55;;;;;;;7.90;7.10;;;19.50;99.90;;;;;;4959491;28;20179;-76
2022/08/15 02:55:21;;;;;;;7.65;6.95;;;19.60;99.90;;;;;;4943511;28;20188;-76
2022/08/15 02:57:47;;;;;;;8.15;7.35;;;19.80;99.90;;;;;;4959148;28;20632;-76
2022/08/15 03:00:15;;;;;;;7.85;7.15;;;19.80;99.90;;;;;;4943851;28;20606;-76
2022/08/15 03:03:00;;;;;;;8.02;7.22;;;19.90;99.90;;;;;;4975309;28;20168;-76
2022/08/15 03:05:29;;;;;;;7.60;6.90;;;19.70;99.90;;;;;;4975526;28;20182;-77
2022/08/15 03:07:55;;;;;;;7.53;6.82;;;19.60;99.90;;;;;;4975239;28;20282;-76
2022/08/15 03:10:21;;;;;;;7.88;7.03;;;19.50;99.90;;;;;;4959125;28;20271;-76
2022/08/15 03:12:56;;;;;;;8.15;7.35;;;19.50;99.90;;;;;;4959144;28;20180;-76
2022/08/15 03:15:25;;;;;;;7.28;6.57;;;19.40;99.90;;;;;;4960317;28;20207;-76
2022/08/15 03:17:52;;;;;;;8.32;7.50;;;19.40;99.90;;;;;;4959514;28;20211;-76
2022/08/15 03:20:19;;;;;;;8.20;7.40;;;19.60;99.90;;;;;;4975074;28;20200;-76
2022/08/15 03:22:48;;;;;;;8.70;7.60;;;19.70;99.90;;;;;;4959271;28;20184;-76
2022/08/15 03:25:16;;;;;;;7.68;6.95;;;19.80;99.90;;;;;;4975211;28;20192;-76
2022/08/15 03:27:42;;;;;;;8.02;7.30;;;19.70;99.90;;;;;;4958712;28;20323;-76
2022/08/15 03:30:10;;;;;;;7.13;6.43;;;19.80;99.90;;;;;;4959147;28;20662;-76
2022/08/15 03:33:05;;;;;;;8.00;7.18;;;19.90;99.90;;;;;;4959126;28;20179;-76
2022/08/15 03:35:36;;;;;;;8.13;7.35;;;19.80;99.90;;;;;;4942679;28;20187;-76
2022/08/15 03:38:02;;;;;;;8.18;7.40;;;19.70;99.90;;;;;;4974747;28;20199;-76
2022/08/15 03:40:29;;;;;;;8.35;7.55;;;19.60;99.90;;;;;;4974923;28;20203;-76
2022/08/15 03:43:04;;;;;;;9.13;7.93;;;19.50;99.90;;;;;;4974986;28;20167;-76
2022/08/15 03:45:32;;;;;;;8.95;8.05;;;19.50;99.90;;;;;;4975111;28;20214;-76
2022/08/15 03:47:57;;;;;;;8.00;7.25;;;19.40;99.90;;;;;;4942486;28;20293;-76
2022/08/15 03:50:23;;;;;;;7.65;6.90;;;19.60;99.90;;;;;;4958975;28;20628;-76
2022/08/15 03:53:00;;;;;;;7.90;7.10;;;19.50;99.90;;;;;;4960305;28;20190;-76
2022/08/15 03:55:29;;;;;;;8.38;7.22;;;19.50;99.90;;;;;;4962490;28;20191;-76
2022/08/15 03:57:56;;;;;;;7.65;7.00;;;19.50;99.90;;;;;;4978419;28;20204;-76
2022/08/15 04:00:26;;;;;;;7.68;6.95;;;19.50;99.90;;;;;;4962195;28;20196;-76
2022/08/15 04:02:53;;;;;;;8.23;7.38;;;19.60;99.90;;;;;;4978370;28;20174;-77
2022/08/15 04:05:19;;;;;;;8.25;7.45;;;19.60;99.90;;;;;;4978318;28;20183;-77
2022/08/15 04:07:45;;;;;;;8.20;7.40;;;19.70;99.90;;;;;;4946147;28;20199;-76
2022/08/15 04:10:18;;;;;;;7.95;7.22;;;19.70;99.90;;;;;;4962342;28;20271;-76
2022/08/15 04:12:44;;;;;;;8.32;7.43;;;19.80;99.90;;;;;;4962382;28;20222;-76
2022/08/15 04:15:13;;;;;;;8.63;7.72;;;19.80;99.90;;;;;;4995853;28;20252;-77
2022/08/15 04:17:39;;;;;;;8.13;7.35;;;19.80;99.90;;;;;;4995369;28;20315;-76
2022/08/15 04:20:08;;;;;;;8.32;7.20;;;19.70;99.90;;;;;;4962107;28;20310;-76
2022/08/15 04:22:42;;;;;;;8.10;7.35;;;19.80;99.90;;;;;;4995539;28;20174;-76
2022/08/15 04:25:18;;;;;;;8.68;7.78;;;19.90;99.90;;;;;;4995603;28;20191;-76
2022/08/15 04:27:44;;;;;;;8.45;7.65;;;19.90;99.90;;;;;;4977886;28;20218;-76
2022/08/15 04:30:11;;;;;;;8.50;7.68;;;19.80;99.90;;;;;;4961836;28;20264;-76
2022/08/15 04:32:38;;;;;;;8.43;7.50;;;19.80;99.90;;;;;;4978042;28;20180;-76
2022/08/15 04:35:06;;;;;;;10.25;8.13;;;19.90;99.90;;;;;;4961980;28;20247;-76
2022/08/15 04:37:32;;;;;;;8.70;7.70;;;19.90;99.90;;;;;;4961826;28;20206;-76
2022/08/15 04:39:57;;;;;;;8.35;7.55;;;20.10;99.90;;;;;;4977670;28;20274;-76
2022/08/15 04:42:26;;;;;;;8.57;7.68;;;20.10;99.90;;;;;;4961594;28;20184;-76
2022/08/15 04:44:52;;;;;;;8.70;7.80;;;20.20;99.90;;;;;;4961807;28;20267;-76
2022/08/15 04:47:18;;;;;;;6.80;6.20;;;20.30;99.90;;;;;;4945218;28;20298;-76
2022/08/15 04:49:44;;;;;;;7.88;6.60;;;20.40;99.90;;;;;;4995004;28;20172;-76
2022/08/15 04:52:13;;;;;;;7.40;5.68;;;20.50;99.90;;;;;;4961746;28;20179;-76
2022/08/15 04:54:38;;;;;;;7.10;5.75;;;20.60;99.90;;;;;;4977852;28;20172;-76
2022/08/15 04:57:05;;;;;;;6.13;5.63;;;20.60;99.90;;;;;;4961332;28;20199;-76
2022/08/15 04:59:31;;;;;;;5.57;5.07;;;20.70;99.90;;;;;;4977418;28;20172;-76
2022/08/15 05:01:56;;;;;;;5.15;4.63;;;20.80;99.90;;;;;;4945537;28;20194;-76
2022/08/15 05:04:22;;;;;;;5.40;4.90;;;20.90;99.90;;;;;;4994272;28;20634;-76
2022/08/15 05:06:48;;;;;;;6.63;4.57;;;20.90;99.90;;;;;;4961025;28;20187;-76
2022/08/15 05:09:13;;;;;;;6.82;4.82;;;21.00;99.90;;;;;;4977193;28;20202;-76
2022/08/15 05:11:39;;;;;;;5.05;4.10;;;21.10;99.90;;;;;;4961133;28;20184;-76
2022/08/15 05:14:05;;;;;;;4.85;3.97;;;21.10;99.90;;;;;;4977145;28;20171;-76
2022/08/15 05:16:33;;;;;;;4.97;4.10;;;21.20;99.90;;;;;;4961304;28;20194;-75
2022/08/15 05:18:59;;;;;;;4.47;4.07;;;21.30;99.90;;;;;;4977155;28;20686;-75
2022/08/15 05:21:27;;;;;;;6.18;4.18;;;21.40;99.90;;;;;;4976881;28;20207;-75
2022/08/15 05:23:53;;;;;;;6.43;4.10;;;21.40;99.90;;;;;;4960944;28;20178;-75
2022/08/15 05:26:19;;;;;;;5.00;4.25;;;21.40;99.90;;;;;;4976745;28;20175;-75
2022/08/15 05:28:44;;;;;;;4.85;4.20;;;21.40;99.90;;;;;;4960660;28;20216;-75
2022/08/15 05:31:11;;;;;;;7.20;4.40;;;21.50;99.90;;;;;;4944983;28;20271;-75
2022/08/15 05:33:38;;;;;;;5.90;4.30;;;21.50;99.90;;;;;;4960614;28;20184;-76
2022/08/15 05:36:06;;;;;;;6.18;4.75;;;21.50;99.90;;;;;;4976771;28;20266;-76
2022/08/15 05:39:27;;;;;;;7.97;4.60;;;21.60;99.90;;;;;;4976677;28;20195;-76
2022/08/15 05:42:11;;;;;;;6.55;4.65;;;21.50;99.90;;;;;;4914965;29;20209;-76
2022/08/15 05:45:08;;;;;;;6.15;4.45;;;21.50;99.90;;;;;;4976699;28;20172;-76
2022/08/15 05:47:39;;;;;;;6.75;4.20;;;21.50;99.90;;;;;;4976091;28;20198;-76
2022/08/15 05:50:20;;;;;;;5.65;4.22;;;21.50;99.90;;;;;;4944877;28;20179;-76
2022/08/15 05:53:04;;;;;;;4.50;4.10;;;21.50;99.90;;;;;;4976451;28;20666;-76
2022/08/15 05:55:58;;;;;;;6.50;4.38;;;21.50;99.90;;;;;;4976426;28;20548;-76
2022/08/15 05:58:50;;;;;;;5.18;3.83;;;21.50;99.90;;;;;;4976092;28;20211;-76
2022/08/15 06:01:26;;;;;;;5.28;3.90;;;21.50;99.90;;;;;;4993705;28;20172;-76
2022/08/15 06:04:31;;;;;;;4.68;4.13;;;21.40;99.90;;;;;;4976203;28;20226;-76
2022/08/15 06:06:58;;;;;;;5.70;4.10;;;21.50;99.90;;;;;;4972088;28;20206;-76
2022/08/15 06:09:41;;;;;;;4.18;3.78;;;21.50;99.90;;;;;;4976242;28;20179;-76
2022/08/15 06:12:13;;;;;;;6.30;3.55;;;21.60;99.90;;;;;;4960214;28;20191;-76
2022/08/15 06:14:43;;;;;;;5.65;3.92;;;21.50;99.90;;;;;;4976430;28;20176;-76
2022/08/15 06:17:12;;;;;;;5.75;4.00;;;21.50;99.90;;;;;;4958979;28;20202;-76
2022/08/15 06:19:42;;;;;;;4.13;3.72;;;21.40;99.90;;;;;;4976174;28;20183;-76
2022/08/15 06:23:05;;;;;;;4.50;4.10;;;21.30;99.90;;;;;;4993307;28;20176;-76
2022/08/15 06:25:51;;;;;;;5.18;3.55;;;21.30;99.90;;;;;;4898350;29;20197;-76
2022/08/15 06:28:42;;;;;;;5.93;3.75;;;21.40;99.90;;;;;;4990409;28;20587;-77
2022/08/15 06:31:14;;;;;;;5.57;3.90;;;21.50;99.90;;;;;;4975668;28;20736;-77
2022/08/15 06:34:01;;;;;;;5.43;4.00;;;21.50;99.90;;;;;;4976026;28;20264;-77
2022/08/15 06:36:55;;;;;;;3.92;3.53;;;21.60;99.90;;;;;;4992922;28;20646;-77
2022/08/15 06:39:28;;;;;;;5.00;4.30;;;21.60;99.90;;;;;;4975656;28;20171;-77
2022/08/15 06:42:04;;;;;;;4.75;3.85;;;21.60;99.90;;;;;;4993038;28;20171;-77
2022/08/15 06:44:31;;;;;;;4.47;3.58;;;21.70;99.90;;;;;;4975932;28;20230;-77
2022/08/15 06:47:05;;;;;;;4.55;3.55;;;21.70;99.90;;;;;;4943235;28;20203;-77
2022/08/15 06:49:42;;;;;;;4.38;3.50;;;21.80;99.90;;;;;;4975491;28;20266;-77
2022/08/15 06:52:08;;;;;;;4.13;3.72;;;21.80;99.90;;;;;;4960116;28;20188;-77
2022/08/15 06:54:35;;;;;;;4.50;3.70;;;21.90;99.90;;;;;;4959526;28;20206;-76
2022/08/15 06:57:13;;;;;;;5.85;3.47;;;21.90;99.90;;;;;;4943432;28;20200;-76
2022/08/15 06:59:50;;;;;;;6.10;4.00;;;22.00;99.90;;;;;;4975434;28;20174;-76
2022/08/15 07:02:19;;;;;;;4.90;3.55;;;22.10;99.90;;;;;;4975265;28;20175;-76
2022/08/15 07:04:52;;;;;;;4.28;3.88;;;22.10;99.90;;;;;;4975389;28;20183;-77
2022/08/15 07:07:34;;;;;;;5.20;3.33;;;22.10;99.90;;;;;;4975107;28;20230;-76
2022/08/15 07:10:17;;;;;;;4.43;3.60;;;22.10;99.90;;;;;;4975503;28;20195;-76
2022/08/15 07:12:52;;;;;;;5.57;3.67;;;22.20;99.90;;;;;;4975092;28;20167;-76
2022/08/15 07:15:36;;;;;;;6.00;3.72;;;22.20;99.90;;;;;;4975381;28;20168;-76
2022/08/15 07:18:08;;;;;;;4.18;3.63;;;22.20;99.90;;;;;;4974996;28;20191;-76
2022/08/15 07:20:35;;;;;;;5.03;3.72;;;22.10;99.90;;;;;;4992732;28;20225;-76
2022/08/15 07:23:19;;;;;;;5.70;3.63;;;22.20;99.90;;;;;;4959074;28;20255;-76
2022/08/15 07:25:47;;;;;;;3.85;3.30;;;22.20;99.90;;;;;;4992660;28;20593;-77
2022/08/15 07:28:17;;;;;;;6.05;3.50;;;22.20;99.90;;;;;;4994420;28;20219;-77
2022/08/15 07:30:58;;;;;;;3.60;3.30;;;22.10;99.90;;;;;;4963124;28;20200;-76
2022/08/15 07:33:48;;;;;;;4.72;3.72;;;22.00;99.90;;;;;;4978990;28;20561;-76
2022/08/15 07:36:27;;;;;;;4.70;3.40;;;22.00;99.90;;;;;;4986682;28;20200;-76
2022/08/15 07:38:55;;;;;;;4.72;3.42;;;22.00;99.90;;;;;;4996251;28;20542;-77
2022/08/15 07:41:33;;;;;;;4.88;3.30;;;22.00;99.90;;;;;;4962943;28;20587;-76
2022/08/15 07:44:15;;;;;;;7.65;3.90;;;22.00;99.90;;;;;;4978709;28;20176;-76
2022/08/15 07:46:48;;;;;;;4.28;3.60;;;22.00;99.90;;;;;;4996000;28;20182;-76
2022/08/15 07:49:16;;;;;;;4.95;3.40;;;22.00;99.90;;;;;;4978809;28;20175;-77
2022/08/15 07:51:48;;;;;;;4.75;3.20;;;21.90;99.90;;;;;;4962616;28;20279;-76
2022/08/15 07:54:27;;;;;;;4.97;4.00;;;21.90;99.90;;;;;;4978632;28;20172;-76
2022/08/15 07:56:58;;;;;;;3.92;3.63;;;21.90;99.90;;;;;;4978670;28;20202;-76
2022/08/15 08:00:08;;;;;;;4.70;3.55;;;21.90;99.90;;;;;;4996068;28;20685;-76
2022/08/15 08:02:49;;;;;;;5.32;3.40;;;21.90;99.90;;;;;;4958951;28;20187;-76
2022/08/15 08:05:15;;;;;;;7.47;3.72;;;21.80;99.90;;;;;;4995938;28;20666;-76
2022/08/15 08:07:48;;;;;;;5.35;3.85;;;21.80;99.90;;;;;;4962228;28;20263;-76
2022/08/15 08:10:42;;;;;;;8.10;3.78;;;21.70;99.90;;;;;;4978655;28;20207;-76
2022/08/15 08:13:28;;;;;;;4.25;3.55;;;21.80;99.90;;;;;;4978117;28;20176;-76
2022/08/15 08:16:33;;;;;;;4.38;3.08;;;21.80;99.90;;;;;;4978452;28;20245;-76
2022/08/15 08:19:10;;;;;;;4.45;3.30;;;21.70;99.90;;;;;;4978012;28;20211;-76
2022/08/15 08:22:26;;;;;;;5.28;3.38;;;21.80;99.90;;;;;;4978184;28;20190;-76
2022/08/15 08:25:00;;;;;;;4.22;3.20;;;21.70;99.90;;;;;;4972646;28;20706;-76
2022/08/15 08:27:37;;;;;;;6.40;3.13;;;21.70;99.90;;;;;;4977608;28;20219;-76
2022/08/15 08:30:14;;;;;;;5.28;3.65;;;21.60;99.90;;;;;;4977823;28;20571;-76
2022/08/15 08:33:09;;;;;;;4.82;3.17;;;21.60;99.90;;;;;;4977975;28;20183;-76
2022/08/15 08:35:52;;;;;;;4.70;3.78;;;21.60;99.90;;;;;;4963128;28;20172;-76
2022/08/15 08:38:43;;;;;;;5.25;3.53;;;21.60;99.90;;;;;;4977385;28;20201;-76
2022/08/15 08:41:28;;;;;;;4.30;3.13;;;21.50;99.90;;;;;;4977829;28;20180;-76
2022/08/15 08:44:00;;;;;;;4.95;3.15;;;21.50;99.90;;;;;;4995229;28;20172;-76
2022/08/15 08:46:38;;;;;;;5.30;3.10;;;21.60;99.90;;;;;;4977247;28;20176;-76
2022/08/15 08:49:22;;;;;;;4.43;3.35;;;21.60;99.90;;;;;;4977874;28;20218;-76
2022/08/15 08:52:06;;;;;;;5.35;3.30;;;21.60;99.90;;;;;;4994987;28;20568;-77
2022/08/15 08:55:17;;;;;;;4.63;3.10;;;21.70;99.90;;;;;;4994968;28;20195;-76
2022/08/15 08:57:52;;;;;;;5.18;3.38;;;21.70;99.90;;;;;;4977095;28;20326;-76
2022/08/15 09:00:21;;;;;;;5.80;3.50;;;21.60;99.90;;;;;;4961915;28;20222;-76
2022/08/15 09:02:58;;;;;;;4.28;3.15;;;21.70;99.90;;;;;;4977449;28;20180;-77
2022/08/15 09:05:37;;;;;;;5.40;3.40;;;21.70;99.90;;;;;;4977698;28;20186;-76
2022/08/15 09:08:36;;;;;;;4.05;3.17;;;21.70;99.90;;;;;;4977233;28;20229;-76
2022/08/15 09:11:11;;;;;;;5.18;3.65;;;21.80;99.90;;;;;;4937832;28;20305;-76
2022/08/15 09:13:41;;;;;;;5.35;3.40;;;21.90;99.90;;;;;;4994637;28;20258;-76
2022/08/15 09:16:19;;;;;;;3.50;3.17;;;22.00;99.90;;;;;;4977828;28;20551;-77
2022/08/15 09:19:11;;;;;;;3.95;3.55;;;22.10;99.90;;;;;;4977037;28;20191;-77
2022/08/15 09:21:37;;;;;;;6.25;3.38;;;22.20;99.90;;;;;;4976886;28;20191;-76
2022/08/15 09:24:04;;;;;;;3.40;3.10;;;22.20;99.90;;;;;;4977023;28;20180;-76
2022/08/15 09:26:50;;;;;;;3.38;3.08;;;22.30;99.90;;;;;;4960666;28;20673;-76
2022/08/15 09:29:27;;;;;;;3.85;3.22;;;22.30;99.90;;;;;;4976908;28;20222;-76
2022/08/15 09:32:28;;;;;;;3.92;3.38;;;22.40;99.90;;;;;;4977012;28;20725;-76
2022/08/15 09:35:08;;;;;;;6.03;3.40;;;22.40;99.90;;;;;;4945640;28;20180;-76
2022/08/15 09:37:44;;;;;;;3.85;3.28;;;22.40;99.90;;;;;;4976587;28;20270;-76
2022/08/15 09:40:49;;;;;;;3.70;3.35;;;22.40;99.90;;;;;;4976652;28;20233;-76
2022/08/15 09:43:55;;;;;;;3.40;3.10;;;22.60;99.90;;;;;;4976541;28;20207;-76
2022/08/15 09:46:49;;;;;;;3.97;3.30;;;22.70;99.90;;;;;;4976401;28;20172;-76
2022/08/15 09:49:29;;;;;;;3.95;3.47;;;22.90;99.90;;;;;;4976840;28;20190;-77
2022/08/15 09:52:18;;;;;;;4.30;3.50;;;23.10;99.90;;;;;;4976342;28;20203;-77
2022/08/15 09:54:49;;;;;;;3.90;3.38;;;23.10;99.90;;;;;;4976534;28;20175;-76
2022/08/15 09:57:36;;;;;;;5.88;3.15;;;23.30;99.90;;;;;;4960531;28;20590;-76
2022/08/15 10:00:16;;;;;;;3.28;2.97;;;23.50;99.90;;;;;;4976328;28;20176;-76
2022/08/15 10:02:45;;;;;;;5.40;3.00;;;23.50;99.90;;;;;;4976160;28;20664;-76
2022/08/15 10:05:32;;;;;;;3.55;3.25;;;23.60;99.90;;;;;;4976267;28;20237;-76
2022/08/15 10:08:02;;;;;;;3.63;3.33;;;23.60;99.90;;;;;;4976263;28;20238;-76
2022/08/15 10:10:36;;;;;;;4.30;3.40;;;23.60;99.90;;;;;;4960126;28;20199;-76
2022/08/15 10:13:09;;;;;;;5.63;3.60;;;23.50;99.90;;;;;;4976238;28;20175;-76
2022/08/15 10:15:43;;;;;;;5.32;3.50;;;23.60;99.90;;;;;;4993493;28;20623;-76
2022/08/15 10:18:21;;;;;;;4.22;3.35;;;23.50;99.90;;;;;;4975703;28;20251;-77
2022/08/15 10:20:51;;;;;;;4.95;3.47;;;23.60;99.90;;;;;;4961797;28;20274;-76
2022/08/15 10:23:18;;;;;;;3.95;3.45;;;23.70;99.90;;;;;;4975956;28;20175;-76
2022/08/15 10:26:08;;;;;;;4.90;4.18;;;23.70;99.90;;;;;;4959717;28;20218;-76
2022/08/15 10:28:36;;;;;;;4.78;3.80;;;23.70;99.90;;;;;;4975506;28;20285;-76
2022/08/15 10:31:04;;;;;;;5.90;3.50;;;23.80;99.90;;;;;;4944198;28;20269;-76
2022/08/15 10:33:39;;;;;;;4.82;3.88;;;23.90;99.90;;;;;;4975712;28;20179;-76
2022/08/15 10:36:14;;;;;;;3.90;3.47;;;23.90;99.90;;;;;;4975773;28;20226;-76
2022/08/15 10:39:00;;;;;;;6.05;4.28;;;23.90;99.90;;;;;;4975639;28;20222;-76
2022/08/15 10:41:39;;;;;;;4.85;3.50;;;24.00;99.90;;;;;;4960835;28;20203;-76
2022/08/15 10:44:23;;;;;;;4.65;3.70;;;24.10;99.90;;;;;;4975759;28;20271;-76
2022/08/15 10:47:15;;;;;;;4.50;4.10;;;24.10;99.90;;;;;;4992589;28;20183;-77
2022/08/15 10:50:00;;;;;;;4.32;3.72;;;24.20;99.90;;;;;;4975516;28;20179;-77
2022/08/15 10:52:44;;;;;;;4.88;3.83;;;24.40;99.90;;;;;;4975627;28;20184;-76
2022/08/15 10:55:23;;;;;;;5.20;3.85;;;25.00;99.90;;;;;;4975427;28;20183;-76
2022/08/15 10:57:52;;;;;;;4.28;3.75;;;25.50;99.90;;;;;;4975010;28;20195;-76
2022/08/15 11:00:39;;;;;;;4.28;3.88;;;25.80;99.90;;;;;;4992655;28;20190;-77
2022/08/15 11:03:16;;;;;;;5.53;4.13;;;26.00;99.90;;;;;;4992243;28;20638;-76
2022/08/15 11:05:42;;;;;;;5.07;4.57;;;25.80;99.90;;;;;;4975366;28;20183;-76
2022/08/15 11:08:14;;;;;;;5.22;3.80;;;25.90;99.90;;;;;;4992394;28;20207;-76
2022/08/15 11:10:39;;;;;;;5.05;3.92;;;26.20;99.90;;;;;;4992644;28;20289;-76
2022/08/15 11:13:08;;;;;;;4.63;3.90;;;26.40;99.90;;;;;;4959342;28;20674;-76
2022/08/15 11:15:56;;;;;;;4.72;4.00;;;26.40;99.90;;;;;;4959449;28;20183;-76
2022/08/15 11:18:48;;;;;;;4.90;4.00;;;26.40;99.90;;;;;;4992395;28;20268;-76
2022/08/15 11:21:48;;;;;;;3.70;3.40;;;26.50;99.90;;;;;;4975514;28;20182;-76
2022/08/15 11:24:24;;;;;;;4.13;3.72;;;26.30;99.90;;;;;;4977869;28;20594;-76
2022/08/15 11:26:49;;;;;;;5.68;4.22;;;26.50;99.90;;;;;;4974625;28;20179;-77
2022/08/15 11:29:23;;;;;;;4.95;4.43;;;26.60;99.90;;;;;;4943293;28;20183;-76
2022/08/15 11:31:55;;;;;;;5.55;4.30;;;26.40;99.90;;;;;;4959465;28;20310;-76
2022/08/15 11:34:36;;;;;;;6.38;4.43;;;26.30;99.90;;;;;;4943799;28;20183;-77
2022/08/15 11:37:04;;;;;;;5.57;4.20;;;26.10;99.90;;;;;;4977008;28;20195;-77
2022/08/15 11:39:31;;;;;;;4.95;4.43;;;26.00;99.90;;;;;;4958977;28;20183;-76
2022/08/15 11:42:04;;;;;;;5.22;4.38;;;25.90;99.90;;;;;;4959226;28;20294;-76
2022/08/15 11:44:59;;;;;;;4.68;4.28;;;25.80;99.90;;;;;;4974899;28;20183;-76
2022/08/15 11:47:28;;;;;;;4.60;4.20;;;25.80;99.90;;;;;;4967423;28;20210;-77
2022/08/15 11:49:58;;;;;;;5.45;3.92;;;25.90;99.90;;;;;;4959105;28;20176;-77
2022/08/15 11:52:31;;;;;;;4.93;3.80;;;25.90;99.90;;;;;;4975703;28;20176;-76
2022/08/15 11:55:25;;;;;;;5.70;4.20;;;25.80;99.90;;;;;;4958961;28;20187;-76
2022/08/15 11:58:14;;;;;;;5.65;3.90;;;25.70;99.90;;;;;;4974689;28;20254;-77
2022/08/15 12:00:43;;;;;;;5.97;4.50;;;25.80;99.90;;;;;;4981543;28;20191;-76
2022/08/15 12:03:32;;;;;;;5.15;4.30;;;25.80;99.90;;;;;;4943148;28;20180;-77
2022/08/15 12:06:12;;;;;;;4.30;3.75;;;26.00;99.90;;;;;;4974820;28;20176;-77
2022/08/15 12:08:41;;;;;;;4.40;4.00;;;26.10;99.90;;;;;;4992100;28;20203;-76
2022/08/15 12:11:21;;;;;;;4.47;4.07;;;26.00;99.90;;;;;;4974839;28;20206;-77
2022/08/15 12:14:07;;;;;;;4.93;3.97;;;26.20;99.90;;;;;;4974654;28;20634;-77
2022/08/15 12:16:39;;;;;;;4.45;4.03;;;26.40;99.90;;;;;;4978112;28;20233;-76
2022/08/15 12:19:39;;;;;;;4.40;4.00;;;26.80;99.90;;;;;;4978137;28;20602;-76
2022/08/15 12:22:18;;;;;;;5.22;3.67;;;27.30;99.90;;;;;;4978205;28;20179;-76
2022/08/15 12:24:48;;;;;;;4.93;3.72;;;27.40;99.90;;;;;;4978193;28;20631;-77
2022/08/15 12:27:14;;;;;;;5.25;3.70;;;27.00;99.90;;;;;;4988192;22;20211;-75
2022/08/15 12:29:40;;;;;;;5.05;3.65;;;27.00;99.90;;;;;;4977725;28;20728;-76
2022/08/15 12:32:08;;;;;;;3.55;3.25;;;27.00;99.90;;;;;;4978227;28;20212;-76
2022/08/15 12:34:36;;;;;;;4.35;3.80;;;26.90;99.90;;;;;;4962035;28;20234;-76
2022/08/15 12:37:09;;;;;;;4.28;3.88;;;26.90;99.90;;;;;;4995103;28;20168;-76
2022/08/15 12:39:41;;;;;;;4.10;3.80;;;26.50;99.90;;;;;;4977998;28;20259;-76
2022/08/15 12:42:10;;;;;;;4.95;3.63;;;26.30;99.90;;;;;;4977768;28;20175;-76
2022/08/15 12:44:37;;;;;;;4.30;3.90;;;26.40;99.90;;;;;;4977702;28;20267;-76
2022/08/15 12:47:05;;;;;;;4.78;4.10;;;26.30;99.90;;;;;;4977150;28;20172;-76
2022/08/15 12:49:30;;;;;;;4.82;3.90;;;26.30;99.90;;;;;;4995108;28;20179;-76
2022/08/15 12:51:56;;;;;;;4.40;3.95;;;26.20;99.90;;;;;;4945696;28;20219;-76
2022/08/15 12:54:22;;;;;;;4.63;4.15;;;26.20;99.90;;;;;;4977477;28;20172;-76
2022/08/15 12:56:47;;;;;;;4.60;3.58;;;26.20;99.90;;;;;;4945378;28;20180;-76
2022/08/15 12:59:14;;;;;;;4.25;3.80;;;26.10;99.90;;;;;;4945340;28;20199;-76
2022/08/15 13:01:42;;;;;;;5.07;3.90;;;26.00;99.90;;;;;;4961481;28;20183;-76
2022/08/15 13:04:10;;;;;;;5.38;4.00;;;25.90;99.90;;;;;;4977468;28;20191;-75
2022/08/15 13:06:49;;;;;;;4.22;3.80;;;25.90;99.90;;;;;;4961452;28;20179;-75
2022/08/15 13:09:17;;;;;;;4.68;4.28;;;25.80;99.90;;;;;;4977662;28;20219;-75
2022/08/15 13:11:44;;;;;;;4.57;3.95;;;25.80;99.90;;;;;;4961375;28;20208;-76
2022/08/15 13:14:11;;;;;;;4.60;4.20;;;25.90;99.90;;;;;;4977206;28;20176;-76
2022/08/15 13:16:38;;;;;;;4.70;4.30;;;25.90;99.90;;;;;;4961178;28;20262;-76
2022/08/15 13:19:06;;;;;;;4.95;4.05;;;25.90;99.90;;;;;;4961144;28;20195;-76
2022/08/15 13:24:17;;;;;;;4.30;3.90;;;26.30;99.90;;;;;;4994602;28;20235;-76
2022/08/15 13:26:43;;;;;;;5.40;4.30;;;26.30;99.90;;;;;;4993699;28;20259;-76
2022/08/15 13:29:10;;;;;;;4.68;4.00;;;26.50;99.90;;;;;;4994204;28;20207;-76